createdAt,value
2022-12-04T00:01:07.823Z,14.55
2022-12-04T00:03:34.672Z,17.35
2022-12-04T00:06:08.645Z,15.10
2022-12-04T00:08:35.544Z,16.15
2022-12-04T00:11:04.146Z,19.85
2022-12-04T00:13:31.270Z,17.08
2022-12-04T00:15:59.606Z,15.18
2022-12-04T00:18:26.734Z,15.63
2022-12-04T00:20:53.484Z,17.90
2022-12-04T00:23:20.319Z,17.75
2022-12-04T00:25:48.829Z,18.05
2022-12-04T00:28:16.824Z,17.17
2022-12-04T00:30:44.954Z,16.90
2022-12-04T00:33:14.837Z,16.10
2022-12-04T00:35:41.652Z,17.48
2022-12-04T00:38:08.498Z,19.23
2022-12-04T00:40:35.280Z,18.73
2022-12-04T00:43:02.275Z,15.32
2022-12-04T00:45:29.150Z,17.08
2022-12-04T00:47:55.962Z,17.90
2022-12-04T00:50:22.785Z,15.00
2022-12-04T00:52:49.550Z,17.13
2022-12-04T00:55:16.351Z,18.02
2022-12-04T00:57:43.173Z,15.20
2022-12-04T01:00:10.106Z,15.05
2022-12-04T01:02:36.902Z,19.15
2022-12-04T01:05:03.839Z,14.43
2022-12-04T01:07:30.616Z,19.88
2022-12-04T01:09:57.816Z,18.25
2022-12-04T01:12:24.793Z,15.38
2022-12-04T01:14:51.575Z,16.25
2022-12-04T01:17:18.711Z,16.13
2022-12-04T01:19:45.981Z,15.07
2022-12-04T01:22:12.781Z,16.77
2022-12-04T01:24:39.686Z,16.17
2022-12-04T01:27:06.519Z,16.75
2022-12-04T01:29:33.641Z,19.50
2022-12-04T01:32:00.532Z,18.27
2022-12-04T01:34:27.424Z,15.07
2022-12-04T01:36:54.251Z,16.92
2022-12-04T01:39:21.083Z,13.65
2022-12-04T01:41:47.874Z,18.10
2022-12-04T01:44:14.685Z,16.55
2022-12-04T01:46:42.755Z,15.82
2022-12-04T01:49:12.384Z,16.92
2022-12-04T01:51:43.409Z,17.05
2022-12-04T01:54:22.417Z,14.80
2022-12-04T01:56:51.184Z,15.93
2022-12-04T01:59:19.442Z,15.48
2022-12-04T02:02:15.784Z,17.35
2022-12-04T02:04:43.508Z,15.80
2022-12-04T02:07:10.372Z,14.10
2022-12-04T02:09:39.423Z,18.80
2022-12-04T02:12:18.606Z,16.13
2022-12-04T02:14:51.987Z,14.27
2022-12-04T02:17:37.746Z,14.77
2022-12-04T02:20:04.771Z,13.05
2022-12-04T02:22:50.456Z,14.65
2022-12-04T02:25:33.236Z,14.15
2022-12-04T02:28:06.153Z,15.65
2022-12-04T02:30:34.539Z,15.65
2022-12-04T02:33:12.134Z,17.15
2022-12-04T02:35:50.537Z,14.20
2022-12-04T02:38:17.299Z,15.45
2022-12-04T02:41:04.371Z,14.65
2022-12-04T02:43:35.759Z,14.35
2022-12-04T02:46:10.380Z,13.38
2022-12-04T02:48:39.414Z,15.10
2022-12-04T02:51:06.847Z,14.43
2022-12-04T02:53:35.130Z,16.73
2022-12-04T02:56:05.348Z,16.77
2022-12-04T02:58:34.999Z,16.17
2022-12-04T03:01:03.113Z,16.73
2022-12-04T03:03:31.201Z,17.77
2022-12-04T03:06:17.801Z,15.32
2022-12-04T03:08:49.941Z,15.02
2022-12-04T03:11:17.028Z,18.58
2022-12-04T03:13:49.678Z,15.23
2022-12-04T03:16:20.845Z,17.40
2022-12-04T03:18:50.707Z,15.23
2022-12-04T03:21:20.649Z,14.60
2022-12-04T03:23:55.175Z,15.25
2022-12-04T03:26:25.082Z,16.23
2022-12-04T03:28:54.652Z,18.52
2022-12-04T03:31:29.247Z,18.60
2022-12-04T03:33:58.225Z,17.50
2022-12-04T03:36:28.305Z,17.00
2022-12-04T03:39:18.501Z,21.35
2022-12-04T03:41:53.180Z,17.10
2022-12-04T03:44:23.038Z,16.75
2022-12-04T03:47:08.423Z,16.65
2022-12-04T03:49:51.075Z,18.20
2022-12-04T03:52:23.660Z,13.45
2022-12-04T03:54:51.951Z,16.27
2022-12-04T03:57:24.483Z,18.10
2022-12-04T03:59:57.848Z,17.17
2022-12-04T04:02:27.639Z,19.35
2022-12-04T04:04:56.455Z,18.13
2022-12-04T04:07:34.853Z,19.23
2022-12-04T04:10:08.053Z,19.13
2022-12-04T04:12:38.096Z,21.15
2022-12-04T04:15:27.419Z,20.35
2022-12-04T04:18:13.634Z,19.20
2022-12-04T04:21:01.210Z,18.25
2022-12-04T04:23:50.215Z,20.85
2022-12-04T04:26:17.913Z,18.50
2022-12-04T04:28:44.785Z,22.38
2022-12-04T04:31:21.403Z,22.25
2022-12-04T04:33:51.250Z,18.67
2022-12-04T04:36:31.486Z,20.15
2022-12-04T04:39:19.861Z,21.90
2022-12-04T04:41:52.581Z,20.20
2022-12-04T04:44:23.164Z,23.77
2022-12-04T04:46:52.340Z,24.15
2022-12-04T04:49:20.005Z,22.50
2022-12-04T04:51:47.102Z,21.95
2022-12-04T04:54:15.406Z,24.58
2022-12-04T04:56:43.123Z,23.23
2022-12-04T04:59:09.987Z,22.30
2022-12-04T05:01:38.167Z,23.92
2022-12-04T05:04:06.017Z,25.10
2022-12-04T05:06:32.770Z,24.00
2022-12-04T05:08:59.573Z,22.23
2022-12-04T05:11:26.481Z,23.08
2022-12-04T05:13:53.226Z,26.70
2022-12-04T05:16:20.088Z,25.92
2022-12-04T05:19:07.030Z,26.63
2022-12-04T05:21:34.156Z,26.95
2022-12-04T05:24:01.421Z,21.40
2022-12-04T05:26:28.189Z,23.50
2022-12-04T05:28:54.904Z,28.75
2022-12-04T05:31:21.681Z,26.83
2022-12-04T05:33:48.534Z,29.13
2022-12-04T05:36:15.458Z,26.98
2022-12-04T05:38:42.315Z,25.60
2022-12-04T05:41:09.299Z,28.67
2022-12-04T05:43:36.070Z,26.98
2022-12-04T05:46:06.832Z,25.55
2022-12-04T05:48:34.863Z,26.50
2022-12-04T05:51:05.550Z,28.73
2022-12-04T05:53:32.346Z,23.80
2022-12-04T05:56:00.821Z,27.15
2022-12-04T05:58:28.182Z,27.48
2022-12-04T06:00:54.955Z,25.02
2022-12-04T06:03:22.253Z,24.00
2022-12-04T06:05:49.103Z,26.00
2022-12-04T06:08:15.995Z,25.52
2022-12-04T06:10:42.839Z,24.92
2022-12-04T06:13:09.658Z,23.98
2022-12-04T06:15:37.464Z,28.48
2022-12-04T06:18:04.418Z,28.05
2022-12-04T06:20:31.253Z,28.95
2022-12-04T06:22:58.087Z,28.50
2022-12-04T06:25:24.869Z,29.92
2022-12-04T06:27:51.700Z,27.40
2022-12-04T06:30:18.541Z,28.90
2022-12-04T06:32:45.325Z,32.08
2022-12-04T06:35:12.064Z,25.63
2022-12-04T06:37:38.847Z,30.65
2022-12-04T06:40:06.562Z,26.60
2022-12-04T06:42:33.384Z,27.65
2022-12-04T06:45:00.141Z,30.63
2022-12-04T06:47:26.957Z,28.55
2022-12-04T06:49:53.978Z,30.17
2022-12-04T06:52:20.994Z,26.65
2022-12-04T06:54:47.894Z,29.65
2022-12-04T06:57:14.641Z,28.92
2022-12-04T06:59:41.432Z,27.90
2022-12-04T07:02:09.396Z,30.95
2022-12-04T07:04:36.362Z,26.65
2022-12-04T07:07:03.160Z,25.45
2022-12-04T07:09:29.925Z,33.33
2022-12-04T07:11:56.714Z,28.92
2022-12-04T07:14:23.527Z,33.75
2022-12-04T07:16:50.405Z,31.48
2022-12-04T07:19:17.349Z,31.13
2022-12-04T07:21:44.172Z,30.17
2022-12-04T07:24:16.042Z,28.75
2022-12-04T07:26:42.994Z,31.40
2022-12-04T07:29:10.737Z,29.08
2022-12-04T07:31:38.019Z,26.55
2022-12-04T07:34:07.992Z,31.58
2022-12-04T07:36:34.769Z,28.70
2022-12-04T07:39:01.605Z,33.55
2022-12-04T07:41:28.388Z,32.03
2022-12-04T07:43:55.196Z,30.65
2022-12-04T07:46:24.283Z,27.38
2022-12-04T07:48:51.184Z,27.27
2022-12-04T07:51:19.592Z,30.27
2022-12-04T07:53:46.728Z,28.58
2022-12-04T07:56:13.827Z,31.50
2022-12-04T07:58:40.909Z,30.80
2022-12-04T08:01:12.420Z,34.05
2022-12-04T08:06:12.145Z,27.15
2022-12-04T08:08:38.898Z,28.52
2022-12-04T08:11:07.076Z,31.88
2022-12-04T08:13:33.880Z,30.33
2022-12-04T08:16:04.420Z,28.77
2022-12-04T08:18:31.697Z,31.92
2022-12-04T08:21:05.812Z,29.13
2022-12-04T08:23:32.615Z,32.05
2022-12-04T08:26:00.484Z,30.67
2022-12-04T08:28:27.354Z,29.52
2022-12-04T08:30:54.188Z,29.05
2022-12-04T08:33:21.098Z,27.77
2022-12-04T08:35:47.896Z,30.33
2022-12-04T08:38:14.677Z,28.67
2022-12-04T08:40:41.436Z,27.73
2022-12-04T08:43:08.207Z,30.20
2022-12-04T08:45:34.953Z,26.10
2022-12-04T08:48:02.279Z,23.38
2022-12-04T08:50:29.313Z,28.10
2022-12-04T08:52:56.070Z,28.58
2022-12-04T08:55:22.869Z,29.08
2022-12-04T08:57:50.810Z,24.85
2022-12-04T09:00:17.734Z,29.08
2022-12-04T09:02:44.529Z,27.80
2022-12-04T09:05:11.286Z,26.65
2022-12-04T09:07:38.124Z,22.60
2022-12-04T09:10:05.133Z,25.55
2022-12-04T09:12:31.925Z,23.95
2022-12-04T09:14:58.687Z,23.50
2022-12-04T09:17:25.440Z,26.00
2022-12-04T09:19:55.501Z,25.52
2022-12-04T09:22:24.678Z,26.63
2022-12-04T09:24:51.447Z,24.52
2022-12-04T09:27:18.220Z,29.23
2022-12-04T09:29:44.956Z,25.38
2022-12-04T09:32:11.754Z,27.05
2022-12-04T09:34:38.533Z,22.30
2022-12-04T09:37:05.339Z,26.30
2022-12-04T09:39:32.207Z,23.15
2022-12-04T09:42:17.858Z,24.45
2022-12-04T09:44:53.892Z,21.45
2022-12-04T09:47:29.702Z,24.25
2022-12-04T09:49:58.901Z,22.38
2022-12-04T09:52:35.065Z,26.98
2022-12-04T09:55:03.896Z,25.27
2022-12-04T09:57:41.346Z,21.25
2022-12-04T10:00:11.755Z,22.20
2022-12-04T10:02:39.821Z,23.98
2022-12-04T10:05:07.890Z,19.67
2022-12-04T10:07:37.775Z,22.33
2022-12-04T10:10:27.970Z,23.65
2022-12-04T10:13:05.176Z,22.63
2022-12-04T10:15:46.931Z,22.30
2022-12-04T10:18:26.527Z,23.55
2022-12-04T10:20:56.293Z,19.95
2022-12-04T10:23:26.289Z,21.23
2022-12-04T10:25:54.902Z,20.77
2022-12-04T10:28:21.671Z,21.25
2022-12-04T10:30:48.702Z,25.35
2022-12-04T10:33:18.001Z,24.63
2022-12-04T10:35:46.363Z,20.55
2022-12-04T10:38:32.030Z,24.42
2022-12-04T10:41:13.271Z,19.63
2022-12-04T10:43:45.728Z,17.08
2022-12-04T10:46:18.871Z,23.15
2022-12-04T10:48:47.532Z,21.60
2022-12-04T10:51:14.970Z,20.38
2022-12-04T10:53:42.578Z,19.92
2022-12-04T10:56:13.775Z,20.33
2022-12-04T10:58:41.148Z,20.55
2022-12-04T11:01:13.638Z,23.38
2022-12-04T11:03:55.407Z,20.48
2022-12-04T11:06:24.734Z,23.42
2022-12-04T11:08:52.194Z,22.13
2022-12-04T11:11:34.888Z,22.63
2022-12-04T11:14:04.302Z,19.67
2022-12-04T11:16:42.135Z,21.40
2022-12-04T11:19:28.777Z,23.95
2022-12-04T11:21:56.829Z,20.98
2022-12-04T11:24:26.545Z,20.35
2022-12-04T11:26:53.347Z,21.10
2022-12-04T11:29:21.990Z,22.55
2022-12-04T11:31:53.041Z,21.02
2022-12-04T11:34:24.987Z,22.33
2022-12-04T11:36:56.121Z,22.70
2022-12-04T11:39:28.547Z,23.52
2022-12-04T11:42:06.348Z,20.98
2022-12-04T11:44:34.392Z,19.80
2022-12-04T11:47:02.953Z,20.48
2022-12-04T11:49:31.270Z,21.77
2022-12-04T11:52:01.110Z,22.65
2022-12-04T11:54:46.875Z,18.63
2022-12-04T11:57:14.091Z,21.17
2022-12-04T11:59:53.255Z,26.83
2022-12-04T12:02:23.308Z,21.23
2022-12-04T12:04:50.096Z,22.20
2022-12-04T12:07:20.062Z,18.00
2022-12-04T12:09:56.590Z,19.27
2022-12-04T12:12:36.429Z,20.92
2022-12-04T12:15:22.156Z,21.05
2022-12-04T12:18:14.474Z,21.17
2022-12-04T12:20:49.658Z,20.85
2022-12-04T12:23:22.560Z,24.48
2022-12-04T12:26:01.503Z,21.75
2022-12-04T12:28:37.932Z,21.08
2022-12-04T12:31:13.945Z,21.73
2022-12-04T12:33:46.606Z,22.42
2022-12-04T12:36:18.960Z,23.30
2022-12-04T12:38:47.753Z,24.75
2022-12-04T12:41:19.920Z,25.08
2022-12-04T12:43:54.665Z,19.30
2022-12-04T12:46:23.970Z,27.00
2022-12-04T12:48:56.561Z,21.08
2022-12-04T12:51:34.038Z,20.55
2022-12-04T12:54:10.330Z,20.35
2022-12-04T12:56:43.346Z,20.90
2022-12-04T12:59:16.952Z,20.83
2022-12-04T13:01:47.784Z,22.05
2022-12-04T13:04:19.449Z,25.98
2022-12-04T13:06:49.971Z,20.25
2022-12-04T13:09:20.501Z,21.75
2022-12-04T13:11:48.802Z,20.08
2022-12-04T13:14:15.735Z,21.98
2022-12-04T13:16:45.519Z,19.55
2022-12-04T13:19:47.945Z,21.00
2022-12-04T13:22:33.179Z,22.25
2022-12-04T13:25:06.168Z,21.75
2022-12-04T13:27:32.922Z,25.27
2022-12-04T13:30:02.909Z,23.23
2022-12-04T13:32:29.747Z,25.70
2022-12-04T13:35:04.215Z,22.13
2022-12-04T13:37:37.199Z,20.33
2022-12-04T13:40:22.676Z,22.42
2022-12-04T13:42:49.622Z,20.67
2022-12-04T13:45:32.411Z,22.40
2022-12-04T13:48:00.094Z,23.02
2022-12-04T13:50:35.664Z,20.92
2022-12-04T13:53:02.522Z,21.05
2022-12-04T13:55:32.430Z,21.33
2022-12-04T13:58:00.367Z,23.00
2022-12-04T14:00:30.448Z,23.30
2022-12-04T14:02:58.756Z,22.73
2022-12-04T14:05:31.365Z,23.75
2022-12-04T14:08:07.724Z,24.77
2022-12-04T14:10:38.829Z,22.63
2022-12-04T14:13:08.567Z,24.25
2022-12-04T14:15:37.083Z,21.60
2022-12-04T14:18:04.011Z,21.90
2022-12-04T14:20:34.589Z,20.35
2022-12-04T14:23:26.516Z,24.10
2022-12-04T14:25:57.914Z,22.77
2022-12-04T14:28:27.895Z,23.55
2022-12-04T14:30:57.792Z,19.90
2022-12-04T14:33:25.894Z,21.90
2022-12-04T14:36:16.763Z,19.75
2022-12-04T14:38:48.594Z,21.05
2022-12-04T14:41:23.290Z,20.77
2022-12-04T14:43:50.385Z,19.60
2022-12-04T14:46:23.246Z,19.17
2022-12-04T14:48:59.234Z,20.98
2022-12-04T14:51:26.081Z,21.77
2022-12-04T14:54:11.314Z,19.60
2022-12-04T14:56:48.210Z,16.80
2022-12-04T14:59:19.412Z,16.92
2022-12-04T15:01:47.398Z,19.10
2022-12-04T15:04:23.084Z,19.38
2022-12-04T15:06:53.139Z,18.55
2022-12-04T15:09:41.737Z,16.25
2022-12-04T15:12:34.798Z,16.92
2022-12-04T15:15:05.275Z,19.35
2022-12-04T15:17:32.036Z,22.05
2022-12-04T15:20:07.497Z,22.15
2022-12-04T15:22:34.393Z,17.45
2022-12-04T15:25:01.387Z,17.20
2022-12-04T15:27:32.450Z,17.45
2022-12-04T15:30:01.680Z,19.60
2022-12-04T15:32:29.665Z,19.08
2022-12-04T15:35:00.784Z,17.98
2022-12-04T15:37:31.459Z,19.40
2022-12-04T15:39:58.880Z,20.35
2022-12-04T15:42:26.021Z,21.20
2022-12-04T15:44:53.037Z,18.92
2022-12-04T15:47:24.703Z,22.90
2022-12-04T15:49:51.663Z,22.77
2022-12-04T15:52:18.471Z,19.88
2022-12-04T15:54:48.287Z,16.35
2022-12-04T15:57:25.103Z,17.30
2022-12-04T15:59:52.335Z,21.20
2022-12-04T16:02:28.568Z,20.25
2022-12-04T16:04:55.489Z,23.40
2022-12-04T16:07:27.293Z,20.30
2022-12-04T16:10:02.622Z,20.75
2022-12-04T16:12:31.768Z,16.65
2022-12-04T16:14:58.789Z,22.08
2022-12-04T16:17:30.199Z,20.45
2022-12-04T16:19:57.832Z,43.50
2022-12-04T16:22:24.998Z,25.77
2022-12-04T16:24:51.973Z,20.58
2022-12-04T16:27:20.360Z,15.50
2022-12-04T16:29:47.214Z,18.65
2022-12-04T16:32:15.800Z,19.25
2022-12-04T16:34:42.583Z,18.85
2022-12-04T16:37:13.386Z,23.40
2022-12-04T16:39:41.603Z,17.80
2022-12-04T16:42:16.417Z,16.52
2022-12-04T16:44:43.593Z,20.13
2022-12-04T16:47:13.817Z,12.05
2022-12-04T16:49:41.034Z,19.42
2022-12-04T16:52:08.350Z,15.02
2022-12-04T16:54:35.110Z,15.18
2022-12-04T16:57:01.928Z,15.73
2022-12-04T16:59:28.731Z,12.20
2022-12-04T17:01:55.702Z,17.58
2022-12-04T17:04:22.601Z,14.48
2022-12-04T17:06:49.510Z,17.33
2022-12-04T17:09:16.524Z,19.40
2022-12-04T17:11:44.005Z,16.90
2022-12-04T17:14:11.309Z,22.98
2022-12-04T17:16:41.203Z,14.95
2022-12-04T17:19:08.775Z,14.02
2022-12-04T17:21:36.025Z,14.82
2022-12-04T17:24:03.415Z,14.65
2022-12-04T17:26:30.286Z,23.80
2022-12-04T17:28:57.092Z,17.85
2022-12-04T17:31:25.593Z,14.65
2022-12-04T17:33:52.642Z,16.88
2022-12-04T17:36:21.044Z,13.73
2022-12-04T17:38:48.099Z,16.95
2022-12-04T17:41:15.374Z,13.63
2022-12-04T17:43:43.272Z,15.20
2022-12-04T17:46:11.649Z,13.98
2022-12-04T17:48:38.577Z,14.20
2022-12-04T17:51:06.651Z,12.43
2022-12-04T17:53:33.459Z,14.48
2022-12-04T17:56:07.357Z,13.75
2022-12-04T17:58:34.663Z,15.85
2022-12-04T18:01:06.838Z,21.90
2022-12-04T18:03:34.259Z,26.48
2022-12-04T18:06:01.528Z,22.70
2022-12-04T18:08:29.575Z,14.60
2022-12-04T18:10:57.142Z,15.18
2022-12-04T18:13:23.921Z,56.05
2022-12-04T18:15:50.729Z,13.75
2022-12-04T18:18:17.559Z,17.65
2022-12-04T18:20:44.411Z,18.55
2022-12-04T18:23:11.206Z,20.38
2022-12-04T18:25:37.991Z,17.42
2022-12-04T18:28:05.183Z,34.97
2022-12-04T18:30:33.562Z,39.25
2022-12-04T18:33:00.378Z,18.13
2022-12-04T18:35:27.210Z,17.55
2022-12-04T18:37:53.956Z,15.30
2022-12-04T18:40:20.847Z,15.52
2022-12-04T18:42:47.631Z,16.30
2022-12-04T18:45:14.375Z,21.13
2022-12-04T18:47:41.247Z,26.30
2022-12-04T18:50:08.258Z,21.95
2022-12-04T18:52:39.898Z,24.80
2022-12-04T18:55:06.823Z,14.70
2022-12-04T18:57:33.595Z,19.00
2022-12-04T19:00:00.594Z,21.88
2022-12-04T19:02:27.603Z,21.52
2022-12-04T19:04:54.398Z,15.65
2022-12-04T19:07:21.175Z,12.85
2022-12-04T19:10:10.324Z,11.27
2022-12-04T19:12:35.806Z,12.65
2022-12-04T19:15:02.640Z,23.17
2022-12-04T19:17:29.438Z,16.52
2022-12-04T19:19:56.499Z,15.50
2022-12-04T19:22:24.841Z,11.60
2022-12-04T19:24:51.626Z,12.75
2022-12-04T19:27:18.425Z,14.90
2022-12-04T19:29:45.349Z,15.98
2022-12-04T19:32:13.846Z,14.02
2022-12-04T19:34:40.717Z,14.35
2022-12-04T19:37:07.617Z,11.93
2022-12-04T19:39:34.421Z,17.27
2022-12-04T19:42:01.197Z,14.65
2022-12-04T19:47:14.901Z,15.55
2022-12-04T19:49:44.827Z,17.77
2022-12-04T19:52:13.023Z,13.50
2022-12-04T19:54:40.246Z,14.00
2022-12-04T19:57:07.047Z,17.35
2022-12-04T19:59:37.708Z,18.27
2022-12-04T20:02:06.419Z,13.68
2022-12-04T20:04:33.222Z,11.45
2022-12-04T20:07:00.018Z,13.45
2022-12-04T20:09:27.462Z,22.88
2022-12-04T20:11:54.389Z,17.25
2022-12-04T20:14:21.153Z,26.67
2022-12-04T20:16:48.050Z,30.17
2022-12-04T20:19:16.233Z,23.00
2022-12-04T20:21:46.183Z,24.20
2022-12-04T20:24:16.001Z,17.13
2022-12-04T20:26:43.717Z,14.98
2022-12-04T20:29:16.185Z,13.90
2022-12-04T20:31:44.318Z,14.65
2022-12-04T20:34:15.794Z,15.65
2022-12-04T20:36:43.788Z,15.85
2022-12-04T20:39:11.398Z,15.05
2022-12-04T20:41:43.447Z,15.02
2022-12-04T20:44:13.217Z,12.00
2022-12-04T20:46:40.122Z,11.32
2022-12-04T20:49:08.638Z,11.70
2022-12-04T20:51:39.354Z,13.23
2022-12-04T20:54:06.642Z,11.15
2022-12-04T20:56:34.816Z,13.93
2022-12-04T20:59:03.341Z,12.52
2022-12-04T21:01:30.366Z,13.43
2022-12-04T21:03:58.491Z,10.45
2022-12-04T21:06:31.022Z,12.95
2022-12-04T21:09:02.242Z,15.02
2022-12-04T21:11:30.369Z,12.70
2022-12-04T21:14:16.789Z,11.95
2022-12-04T21:16:43.833Z,13.27
2022-12-04T21:19:11.504Z,13.25
2022-12-04T21:21:38.398Z,14.77
2022-12-04T21:24:06.399Z,12.52
2022-12-04T21:26:33.964Z,13.68
2022-12-04T21:29:01.164Z,14.73
2022-12-04T21:31:29.415Z,16.10
2022-12-04T21:33:56.827Z,15.23
2022-12-04T21:36:24.064Z,12.20
2022-12-04T21:38:51.320Z,16.23
2022-12-04T21:41:37.012Z,13.57
2022-12-04T21:44:04.526Z,13.30
2022-12-04T21:46:32.277Z,15.23
2022-12-04T21:48:59.919Z,19.80
2022-12-04T21:51:55.734Z,21.23
2022-12-04T21:54:13.725Z,19.52
2022-12-04T21:56:40.551Z,31.33
2022-12-04T21:59:07.497Z,27.30
2022-12-04T22:01:34.404Z,34.60
2022-12-04T22:04:01.275Z,27.05
2022-12-04T22:06:28.121Z,12.68
2022-12-04T22:08:55.634Z,18.63
2022-12-04T22:11:22.657Z,17.63
2022-12-04T22:13:49.643Z,15.07
2022-12-04T22:16:17.562Z,14.40
2022-12-04T22:18:44.727Z,13.68
2022-12-04T22:21:15.809Z,15.35
2022-12-04T22:23:42.742Z,17.42
2022-12-04T22:26:10.960Z,15.98
2022-12-04T22:28:40.847Z,15.38
2022-12-04T22:31:09.134Z,13.70
2022-12-04T22:33:36.507Z,17.20
2022-12-04T22:36:04.627Z,15.98
2022-12-04T22:38:31.532Z,13.40
2022-12-04T22:41:02.000Z,16.38
2022-12-04T22:43:29.611Z,18.58
2022-12-04T22:45:56.459Z,18.23
2022-12-04T22:48:23.935Z,16.58
2022-12-04T22:50:57.007Z,16.65
2022-12-04T22:53:24.308Z,14.27
2022-12-04T22:55:51.101Z,15.63
2022-12-04T22:58:17.879Z,14.93
2022-12-04T23:00:44.725Z,15.43
2022-12-04T23:03:11.593Z,15.25
2022-12-04T23:05:38.468Z,16.23
2022-12-04T23:08:05.323Z,16.33
2022-12-04T23:10:32.198Z,19.05
2022-12-04T23:12:59.039Z,13.93
2022-12-04T23:15:25.923Z,16.55
2022-12-04T23:17:52.685Z,16.92
2022-12-04T23:20:19.465Z,13.45
2022-12-04T23:22:48.034Z,14.73
2022-12-04T23:25:15.216Z,15.93
2022-12-04T23:27:41.964Z,16.98
2022-12-04T23:30:09.118Z,18.27
2022-12-04T23:32:36.118Z,15.80
2022-12-04T23:35:02.893Z,17.85
2022-12-04T23:37:30.170Z,17.83
2022-12-04T23:39:57.163Z,17.75
2022-12-04T23:42:24.162Z,17.45
2022-12-04T23:44:50.986Z,15.50
2022-12-04T23:47:17.874Z,16.45
2022-12-04T23:49:44.784Z,18.02
2022-12-04T23:52:11.576Z,19.05
2022-12-04T23:54:38.369Z,18.67
2022-12-04T23:57:05.135Z,18.55
2022-12-04T23:59:32.013Z,16.83
